Time;durP1;ratioP1;P1;durP2;ratioP2;P2;SDS_P1;SDS_P2;PMS_P1;PMS_P2;Temp;Humidity;BMP_temperature;BMP_pressure;BME280_temperature;BME280_humidity;BME280_pressure;Samples;Min_cycle;Max_cycle;Signal;HPM_P1;HPM_P2
2021/12/01 00:00:43;;;;;;;7.22;3.60;;;21.10;55.90;;;;;;5055899;28;20045;-70
2021/12/01 00:03:10;;;;;;;4.60;3.47;;;21.10;56.10;;;;;;5055853;28;20063;-70
2021/12/01 00:05:36;;;;;;;4.15;3.45;;;21.00;56.00;;;;;;5055591;28;20065;-70
2021/12/01 00:08:03;;;;;;;4.55;3.42;;;21.00;55.90;;;;;;5059794;28;20113;-70
2021/12/01 00:10:34;;;;;;;5.13;3.28;;;21.00;55.80;;;;;;5060081;28;20049;-70
2021/12/01 00:13:09;;;;;;;4.47;3.53;;;21.00;55.80;;;;;;5059738;28;20065;-70
2021/12/01 00:15:37;;;;;;;4.25;3.13;;;21.10;55.60;;;;;;5059818;28;20042;-70
2021/12/01 00:18:03;;;;;;;3.50;3.03;;;21.00;55.40;;;;;;5059821;28;20041;-70
2021/12/01 00:20:30;;;;;;;3.78;3.00;;;21.10;55.40;;;;;;5059533;28;20041;-70
2021/12/01 00:22:56;;;;;;;4.47;3.13;;;21.10;55.20;;;;;;5059750;28;20037;-70
2021/12/01 00:25:25;;;;;;;3.67;2.90;;;21.20;55.00;;;;;;5059537;28;20056;-70
2021/12/01 00:27:53;;;;;;;4.28;3.53;;;21.10;55.10;;;;;;5059565;28;20045;-70
2021/12/01 00:30:19;;;;;;;5.35;3.40;;;21.10;54.90;;;;;;5059572;28;20041;-70
2021/12/01 00:32:46;;;;;;;5.05;3.00;;;21.20;54.90;;;;;;5059722;28;20040;-70
2021/12/01 00:35:12;;;;;;;3.35;3.05;;;21.10;54.80;;;;;;5059438;28;20105;-70
2021/12/01 00:37:40;;;;;;;5.05;3.22;;;21.10;54.80;;;;;;5059345;28;20053;-70
2021/12/01 00:40:09;;;;;;;4.60;3.03;;;21.10;54.70;;;;;;5059172;28;20053;-70
2021/12/01 00:42:35;;;;;;;3.75;2.67;;;21.10;54.60;;;;;;5059106;28;20029;-70
2021/12/01 00:45:16;;;;;;;3.97;3.17;;;21.10;54.50;;;;;;5059189;28;20100;-70
2021/12/01 00:47:50;;;;;;;3.28;2.97;;;21.20;54.40;;;;;;5058936;28;20041;-70
2021/12/01 00:50:25;;;;;;;4.70;3.30;;;21.20;54.40;;;;;;5059249;28;20101;-70
2021/12/01 00:52:54;;;;;;;5.30;3.05;;;21.10;54.40;;;;;;5059315;28;20064;-70
2021/12/01 00:55:22;;;;;;;3.17;2.63;;;21.10;54.40;;;;;;5058942;28;20041;-70
2021/12/01 00:57:52;;;;;;;4.35;2.85;;;21.00;54.40;;;;;;5059109;28;20049;-70
2021/12/01 01:00:21;;;;;;;3.30;2.72;;;21.00;54.40;;;;;;5058983;28;20041;-70
2021/12/01 01:02:48;;;;;;;5.07;2.55;;;21.10;54.70;;;;;;5058979;28;20045;-70
2021/12/01 01:05:14;;;;;;;2.90;2.70;;;21.00;54.40;;;;;;5059107;28;20040;-70
2021/12/01 01:07:40;;;;;;;3.88;2.58;;;21.20;54.30;;;;;;5058963;28;20026;-70
2021/12/01 01:18:24;;;;;;;3.10;2.70;;;21.00;54.70;;;;;;5057516;28;20048;-71
2021/12/01 01:20:50;;;;;;;2.90;2.40;;;21.10;54.60;;;;;;5058671;28;20085;-70
2021/12/01 01:23:16;;;;;;;3.75;2.45;;;21.00;54.50;;;;;;5058577;28;20037;-70
2021/12/01 01:25:43;;;;;;;2.90;2.33;;;21.10;54.60;;;;;;5058524;28;20109;-70
2021/12/01 01:28:09;;;;;;;2.92;2.20;;;21.00;54.20;;;;;;5058655;28;20044;-70
2021/12/01 01:30:35;;;;;;;3.70;2.40;;;21.00;54.10;;;;;;5058395;28;20049;-70
2021/12/01 01:33:01;;;;;;;2.70;2.50;;;21.00;54.20;;;;;;5058570;28;20049;-70
2021/12/01 01:35:28;;;;;;;2.70;2.30;;;21.00;54.00;;;;;;5043289;28;20057;-70
2021/12/01 01:37:54;;;;;;;3.50;2.28;;;21.00;54.10;;;;;;5038433;28;20046;-70
2021/12/01 01:40:20;;;;;;;3.22;2.45;;;21.00;54.20;;;;;;5062526;28;20052;-70
2021/12/01 01:42:48;;;;;;;2.60;2.38;;;21.00;54.30;;;;;;5078479;28;20036;-70
2021/12/01 01:45:16;;;;;;;2.20;2.00;;;20.90;54.30;;;;;;5078140;28;20068;-70
2021/12/01 01:48:04;;;;;;;3.05;2.60;;;20.90;54.40;;;;;;5078205;28;20037;-70
2021/12/01 01:50:35;;;;;;;2.40;2.20;;;20.90;54.40;;;;;;5078131;28;20131;-70
2021/12/01 01:53:05;;;;;;;2.58;2.30;;;21.00;54.20;;;;;;5078256;28;20049;-71
2021/12/01 01:55:32;;;;;;;2.42;2.22;;;21.00;53.60;;;;;;5078077;28;20071;-70
2021/12/01 01:57:58;;;;;;;2.92;2.50;;;21.20;53.50;;;;;;5077839;28;20077;-71
2021/12/01 02:00:25;;;;;;;3.47;2.30;;;21.10;53.90;;;;;;5077948;28;20044;-70
2021/12/01 02:02:52;;;;;;;3.17;2.63;;;21.10;53.90;;;;;;5077834;28;20037;-70
2021/12/01 02:05:18;;;;;;;2.90;2.30;;;21.00;53.90;;;;;;5077653;28;20044;-71
2021/12/01 02:07:44;;;;;;;2.42;2.10;;;21.00;54.10;;;;;;5077651;28;20067;-70
2021/12/01 02:10:10;;;;;;;2.40;2.20;;;21.00;54.20;;;;;;5077818;28;20122;-70
2021/12/01 02:12:39;;;;;;;2.20;2.00;;;21.00;54.20;;;;;;5077744;28;20105;-70
2021/12/01 02:15:08;;;;;;;3.85;2.80;;;21.00;54.10;;;;;;5077664;28;20071;-70
2021/12/01 02:17:34;;;;;;;2.78;2.10;;;21.00;54.00;;;;;;5077719;28;20033;-69
2021/12/01 02:20:00;;;;;;;2.88;2.63;;;21.00;53.90;;;;;;5077484;28;20052;-70
2021/12/01 02:22:26;;;;;;;4.10;2.50;;;21.00;53.80;;;;;;5077570;28;20063;-70
2021/12/01 02:24:53;;;;;;;3.25;2.53;;;21.00;53.70;;;;;;5077465;28;20051;-70
2021/12/01 02:27:19;;;;;;;2.40;2.20;;;21.00;53.60;;;;;;5077264;28;20116;-70
2021/12/01 02:29:45;;;;;;;3.92;2.55;;;20.90;53.50;;;;;;5076922;28;20044;-70
2021/12/01 02:32:11;;;;;;;2.45;2.20;;;21.00;53.50;;;;;;5077400;28;20036;-70
2021/12/01 02:34:44;;;;;;;3.30;2.33;;;21.00;53.40;;;;;;5076993;28;20051;-70
2021/12/01 02:37:10;;;;;;;4.30;2.13;;;20.90;53.30;;;;;;5077219;28;20041;-69
2021/12/01 02:39:38;;;;;;;3.45;2.05;;;21.10;53.30;;;;;;5076844;28;20071;-70
2021/12/01 02:42:07;;;;;;;3.15;1.92;;;21.10;53.30;;;;;;5077367;28;20067;-70
2021/12/01 02:44:35;;;;;;;3.50;2.33;;;21.10;53.20;;;;;;5077113;28;20048;-70
2021/12/01 02:47:03;;;;;;;2.60;1.95;;;21.30;53.00;;;;;;5076995;28;20040;-70
2021/12/01 02:49:30;;;;;;;4.50;2.95;;;21.40;52.80;;;;;;5076993;28;20052;-70
2021/12/01 02:51:56;;;;;;;3.67;2.55;;;21.50;52.60;;;;;;5076953;28;20072;-70
2021/12/01 02:54:25;;;;;;;3.67;2.60;;;21.50;52.60;;;;;;5076847;28;20131;-70
2021/12/01 02:56:52;;;;;;;2.75;1.83;;;21.50;52.70;;;;;;5076738;28;20055;-69
2021/12/01 02:59:20;;;;;;;4.30;2.75;;;21.50;52.60;;;;;;5076812;28;20047;-70
2021/12/01 03:01:46;;;;;;;3.03;2.22;;;21.40;52.60;;;;;;5076632;28;20049;-70
2021/12/01 03:04:14;;;;;;;4.00;2.20;;;21.50;52.80;;;;;;5076769;28;20060;-69
2021/12/01 03:06:44;;;;;;;2.50;1.92;;;21.40;52.80;;;;;;5076724;28;20041;-70
2021/12/01 03:09:12;;;;;;;2.47;2.00;;;21.40;52.80;;;;;;5076661;28;20033;-69
2021/12/01 03:11:38;;;;;;;3.80;2.30;;;21.50;52.90;;;;;;5076685;28;20044;-70
2021/12/01 03:14:14;;;;;;;1.83;1.73;;;21.50;52.90;;;;;;5076603;28;20049;-70
2021/12/01 03:16:40;;;;;;;1.60;1.50;;;21.60;52.80;;;;;;5076412;28;20052;-70
2021/12/01 03:19:06;;;;;;;1.95;1.73;;;21.60;52.80;;;;;;5076513;28;20049;-70
2021/12/01 03:21:41;;;;;;;2.78;2.15;;;21.50;52.70;;;;;;5076479;28;20043;-70
2021/12/01 03:24:08;;;;;;;2.00;1.80;;;21.60;52.70;;;;;;5076390;28;20105;-71
2021/12/01 03:26:35;;;;;;;2.45;1.67;;;21.50;52.60;;;;;;5076320;28;20063;-70
2021/12/01 03:29:03;;;;;;;2.83;1.77;;;21.50;52.60;;;;;;5076177;28;20058;-70
2021/12/01 03:31:29;;;;;;;2.00;1.80;;;21.50;52.50;;;;;;5076210;28;20072;-70
2021/12/01 03:33:56;;;;;;;1.52;1.42;;;21.60;52.60;;;;;;5076190;28;20032;-71
2021/12/01 03:36:23;;;;;;;2.35;1.77;;;21.60;52.50;;;;;;5070839;28;20045;-70
2021/12/01 03:38:49;;;;;;;5.00;1.98;;;21.50;52.50;;;;;;5055962;28;20101;-70
2021/12/01 03:41:15;;;;;;;2.33;1.92;;;21.50;52.50;;;;;;5055353;28;20105;-70
2021/12/01 03:43:41;;;;;;;3.67;1.58;;;21.60;52.60;;;;;;5056108;28;20052;-70
2021/12/01 03:46:08;;;;;;;2.50;1.92;;;21.50;52.60;;;;;;5055976;28;20042;-70
2021/12/01 03:48:34;;;;;;;7.13;1.75;;;21.40;52.60;;;;;;5056049;28;20037;-70
2021/12/01 03:51:01;;;;;;;3.28;2.10;;;21.40;52.60;;;;;;5055991;28;20112;-70
2021/12/01 03:53:28;;;;;;;2.60;1.63;;;21.30;52.60;;;;;;5056118;28;21045;-70
2021/12/01 03:55:54;;;;;;;2.08;1.80;;;21.40;52.60;;;;;;5055707;28;20041;-68
2021/12/01 03:58:20;;;;;;;2.33;1.70;;;21.40;52.50;;;;;;5055591;28;20057;-69
2021/12/01 04:00:47;;;;;;;8.55;1.42;;;21.40;52.50;;;;;;5055892;28;20076;-69
2021/12/01 04:03:13;;;;;;;1.92;1.40;;;21.40;52.30;;;;;;5056136;28;20061;-69
2021/12/01 04:05:40;;;;;;;1.77;1.13;;;21.50;52.30;;;;;;5055776;28;20482;-69
2021/12/01 04:08:07;;;;;;;1.85;1.50;;;21.60;52.20;;;;;;5055766;28;20053;-67
2021/12/01 04:10:35;;;;;;;2.08;1.80;;;21.50;52.20;;;;;;5055805;28;20049;-69
2021/12/01 04:13:02;;;;;;;1.80;1.42;;;21.50;52.30;;;;;;5055791;28;20049;-69
2021/12/01 04:15:28;;;;;;;3.13;1.63;;;21.50;52.40;;;;;;5055715;28;20076;-69
2021/12/01 04:17:54;;;;;;;2.05;1.73;;;21.30;52.40;;;;;;5055424;28;20058;-69
2021/12/01 04:20:21;;;;;;;2.38;1.80;;;21.40;52.50;;;;;;5055802;28;20056;-69
2021/12/01 04:22:49;;;;;;;1.67;1.30;;;21.40;52.60;;;;;;5055898;28;20114;-69
2021/12/01 04:25:16;;;;;;;2.05;1.42;;;21.30;52.60;;;;;;5055612;28;20053;-69
2021/12/01 04:27:42;;;;;;;2.30;1.27;;;21.20;52.50;;;;;;5055637;28;20065;-69
2021/12/01 04:30:12;;;;;;;1.77;1.08;;;21.30;52.50;;;;;;5055778;28;20069;-69
2021/12/01 04:32:38;;;;;;;1.15;1.05;;;21.30;52.40;;;;;;5055688;28;20105;-68
2021/12/01 04:35:07;;;;;;;1.30;1.10;;;21.40;52.30;;;;;;5055562;28;20042;-69
2021/12/01 04:37:35;;;;;;;1.48;1.20;;;21.50;52.10;;;;;;5055551;28;20072;-68
2021/12/01 04:40:01;;;;;;;1.05;1.00;;;21.50;52.00;;;;;;5055314;28;20057;-69
2021/12/01 04:42:27;;;;;;;1.60;1.10;;;21.50;51.80;;;;;;5055436;28;20049;-69
2021/12/01 04:44:53;;;;;;;1.63;0.98;;;21.70;51.70;;;;;;5055493;28;20044;-69
2021/12/01 04:47:26;;;;;;;1.13;0.90;;;21.80;51.50;;;;;;5055535;28;20037;-68
2021/12/01 04:49:52;;;;;;;0.90;0.90;;;21.80;51.30;;;;;;5055609;28;20050;-68
2021/12/01 04:52:19;;;;;;;2.20;1.00;;;22.00;51.30;;;;;;5056142;28;20041;-69
2021/12/01 04:54:45;;;;;;;1.17;1.08;;;21.90;51.30;;;;;;5058873;28;20045;-69
2021/12/01 04:57:11;;;;;;;1.02;0.82;;;22.00;51.20;;;;;;5059067;28;20046;-69
2021/12/01 04:59:37;;;;;;;3.90;1.13;;;22.10;51.20;;;;;;5058968;28;20072;-69
2021/12/01 05:02:04;;;;;;;1.27;1.15;;;22.10;51.10;;;;;;5059013;28;20052;-69
2021/12/01 05:04:32;;;;;;;2.38;1.00;;;22.20;51.20;;;;;;5058953;28;20057;-68
2021/12/01 05:06:59;;;;;;;2.05;1.23;;;22.20;51.20;;;;;;5058968;28;20040;-69
2021/12/01 05:09:25;;;;;;;2.05;1.30;;;22.30;51.40;;;;;;5058861;28;20076;-69
2021/12/01 05:11:51;;;;;;;1.30;0.90;;;22.20;51.30;;;;;;5058978;28;20041;-68
2021/12/01 05:14:18;;;;;;;0.77;0.77;;;22.20;51.40;;;;;;5058531;28;20083;-69
2021/12/01 05:16:44;;;;;;;1.17;1.00;;;22.20;51.60;;;;;;5058764;28;20045;-70
2021/12/01 05:19:11;;;;;;;1.20;1.10;;;22.10;52.10;;;;;;5058400;28;20049;-76
2021/12/01 05:21:39;;;;;;;1.23;0.75;;;22.30;55.40;;;;;;5058591;28;20079;-75
2021/12/01 05:24:06;;;;;;;0.80;0.80;;;22.50;55.40;;;;;;5058558;28;20120;-74
2021/12/01 05:26:33;;;;;;;3.60;1.13;;;22.70;55.40;;;;;;5058534;28;20140;-75
2021/12/01 05:28:59;;;;;;;2.35;1.10;;;22.90;57.90;;;;;;5058473;28;20041;-75
2021/12/01 05:31:25;;;;;;;1.40;1.02;;;23.00;61.40;;;;;;5058159;28;20041;-74
2021/12/01 05:33:52;;;;;;;0.85;0.80;;;23.00;54.20;;;;;;5058569;28;20048;-77
2021/12/01 05:36:18;;;;;;;1.10;1.00;;;22.90;50.60;;;;;;5058508;28;20051;-74
2021/12/01 05:38:44;;;;;;;1.00;0.90;;;22.90;48.80;;;;;;5058407;28;20064;-70
2021/12/01 05:41:10;;;;;;;2.35;0.93;;;22.80;47.80;;;;;;5057949;28;20046;-70
2021/12/01 05:43:36;;;;;;;1.42;1.00;;;22.80;47.20;;;;;;5057967;28;20052;-70
2021/12/01 05:46:03;;;;;;;0.70;0.65;;;22.80;47.00;;;;;;5057597;28;20068;-69
2021/12/01 05:48:29;;;;;;;1.80;1.15;;;22.80;47.50;;;;;;5058119;28;20053;-70
2021/12/01 05:50:55;;;;;;;1.08;0.98;;;22.90;48.10;;;;;;5057757;28;20045;-70
2021/12/01 05:53:21;;;;;;;2.20;1.15;;;22.90;48.80;;;;;;5057883;28;20060;-69
2021/12/01 05:55:48;;;;;;;1.23;1.13;;;22.70;49.10;;;;;;5057943;28;20113;-70
2021/12/01 05:58:14;;;;;;;2.33;1.05;;;22.70;49.80;;;;;;5057799;28;20049;-69
2021/12/01 06:00:40;;;;;;;1.35;0.85;;;22.80;48.80;;;;;;5057801;28;20056;-70
2021/12/01 06:03:06;;;;;;;0.70;0.50;;;22.70;44.20;;;;;;5057751;28;20053;-70
2021/12/01 06:05:33;;;;;;;1.33;1.00;;;22.80;49.40;;;;;;5056328;28;20056;-69
2021/12/01 06:07:59;;;;;;;1.65;1.17;;;22.80;41.50;;;;;;5053300;28;20050;-70
2021/12/01 06:10:25;;;;;;;2.47;0.80;;;22.70;39.60;;;;;;5047914;28;20109;-69
2021/12/01 06:12:52;;;;;;;1.35;1.23;;;22.60;39.60;;;;;;5046136;28;20113;-71
2021/12/01 06:15:18;;;;;;;3.58;1.50;;;22.60;41.40;;;;;;5049012;28;20069;-69
2021/12/01 06:17:45;;;;;;;1.35;1.20;;;22.70;41.00;;;;;;5046209;28;20064;-70
2021/12/01 06:20:13;;;;;;;2.45;1.92;;;22.70;40.90;;;;;;5046160;28;20105;-69
2021/12/01 06:22:43;;;;;;;3.65;1.95;;;22.70;41.10;;;;;;5064230;28;20046;-71
2021/12/01 06:25:10;;;;;;;3.55;2.60;;;22.70;42.70;;;;;;5038211;28;20069;-70
2021/12/01 06:27:37;;;;;;;5.10;2.85;;;22.80;41.20;;;;;;5046844;28;20060;-71
2021/12/01 06:30:08;;;;;;;8.52;2.90;;;22.70;42.50;;;;;;5047784;28;20051;-70
2021/12/01 06:32:34;;;;;;;3.88;1.88;;;22.90;42.50;;;;;;5045433;28;20065;-70
2021/12/01 06:35:02;;;;;;;2.53;1.73;;;22.80;46.80;;;;;;5043491;28;20053;-70
2021/12/01 06:37:28;;;;;;;2.80;1.60;;;23.00;53.00;;;;;;5046008;28;20057;-71
2021/12/01 06:39:54;;;;;;;6.78;2.47;;;23.00;56.60;;;;;;5049975;28;20104;-72
2021/12/01 06:42:20;;;;;;;3.80;2.60;;;23.00;54.50;;;;;;5036955;28;20084;-71
2021/12/01 06:44:47;;;;;;;3.13;2.17;;;23.00;54.20;;;;;;5057027;28;20038;-71
2021/12/01 06:47:14;;;;;;;0.95;0.93;;;22.90;53.70;;;;;;5056921;28;20069;-70
2021/12/01 06:49:44;;;;;;;3.28;1.13;;;23.00;54.10;;;;;;5056917;28;20062;-71
2021/12/01 06:52:10;;;;;;;1.05;0.93;;;23.00;53.60;;;;;;5056805;28;20057;-70
2021/12/01 06:54:37;;;;;;;0.90;0.90;;;23.00;53.10;;;;;;5056271;28;20037;-70
2021/12/01 06:57:03;;;;;;;1.75;0.93;;;23.10;51.80;;;;;;5056140;28;20095;-70
2021/12/01 06:59:29;;;;;;;1.88;1.25;;;23.00;50.70;;;;;;5056581;28;20082;-70
2021/12/01 07:01:55;;;;;;;1.10;1.00;;;23.00;49.60;;;;;;5056651;28;20037;-71
2021/12/01 07:04:21;;;;;;;1.65;1.13;;;23.00;48.90;;;;;;5072632;28;20067;-70
2021/12/01 07:06:47;;;;;;;4.65;1.05;;;23.00;47.50;;;;;;5056553;28;20048;-70
2021/12/01 07:09:18;;;;;;;2.97;0.93;;;23.00;45.70;;;;;;5057121;28;20029;-70
2021/12/01 07:11:46;;;;;;;2.85;1.73;;;23.00;44.50;;;;;;5056838;28;20068;-70
2021/12/01 07:14:13;;;;;;;5.50;0.93;;;23.00;42.90;;;;;;5056521;28;20048;-70
2021/12/01 07:16:39;;;;;;;2.30;1.13;;;22.90;42.70;;;;;;5056460;28;20061;-70
2021/12/01 07:19:06;;;;;;;3.95;1.88;;;23.00;42.90;;;;;;5055967;28;20088;-69
2021/12/01 07:21:32;;;;;;;1.10;1.00;;;23.00;42.80;;;;;;5056428;28;20057;-69
2021/12/01 07:23:59;;;;;;;2.05;1.55;;;23.00;41.00;;;;;;5056354;28;20125;-70
2021/12/01 07:26:25;;;;;;;3.35;1.50;;;22.90;42.10;;;;;;5056476;28;20037;-70
2021/12/01 07:28:51;;;;;;;2.25;1.80;;;22.90;42.90;;;;;;5056166;28;20049;-70
2021/12/01 07:31:17;;;;;;;4.45;1.80;;;22.80;40.60;;;;;;5055957;28;20040;-70
2021/12/01 07:33:43;;;;;;;1.58;1.33;;;22.70;44.30;;;;;;5056156;28;20049;-70
2021/12/01 07:36:09;;;;;;;2.28;1.92;;;22.70;45.20;;;;;;5056129;28;20041;-71
2021/12/01 07:38:35;;;;;;;2.88;1.70;;;22.70;40.10;;;;;;5053704;28;20085;-70
2021/12/01 07:41:01;;;;;;;2.42;2.00;;;22.70;46.10;;;;;;5066472;28;20078;-71
2021/12/01 07:43:27;;;;;;;3.03;1.90;;;22.70;45.70;;;;;;5036232;28;20077;-70
2021/12/01 07:45:55;;;;;;;4.13;2.05;;;22.80;44.90;;;;;;5036128;28;20045;-70
2021/12/01 07:48:21;;;;;;;3.90;1.85;;;22.80;44.60;;;;;;5036090;28;20037;-72
2021/12/01 07:50:47;;;;;;;3.25;1.98;;;22.90;44.30;;;;;;5036205;28;20056;-70
2021/12/01 07:53:13;;;;;;;3.92;1.80;;;22.80;41.90;;;;;;5036282;28;20053;-70
2021/12/01 07:55:40;;;;;;;4.07;2.63;;;22.80;43.40;;;;;;5036055;28;20045;-70
2021/12/01 07:58:06;;;;;;;3.85;2.40;;;22.70;42.90;;;;;;5036173;28;20054;-70
2021/12/01 08:00:32;;;;;;;4.22;1.90;;;22.80;41.80;;;;;;5035903;28;20046;-70
2021/12/01 08:02:58;;;;;;;3.55;2.15;;;22.80;42.00;;;;;;5036074;28;20050;-70
2021/12/01 08:05:25;;;;;;;5.68;2.03;;;22.70;42.50;;;;;;5035949;28;20057;-71
2021/12/01 08:07:51;;;;;;;1.73;1.10;;;22.70;41.50;;;;;;5036141;28;20041;-70
2021/12/01 08:10:17;;;;;;;2.67;2.00;;;22.70;40.50;;;;;;5035897;28;20255;-70
2021/12/01 08:12:43;;;;;;;2.67;2.05;;;22.80;40.10;;;;;;5035866;28;20077;-70
2021/12/01 08:15:10;;;;;;;3.40;1.83;;;22.70;39.00;;;;;;5035895;28;20064;-69
2021/12/01 08:17:37;;;;;;;2.67;2.20;;;22.50;41.30;;;;;;5035913;28;20041;-71
2021/12/01 08:20:04;;;;;;;2.97;1.55;;;22.70;42.60;;;;;;5035718;28;20045;-70
2021/12/01 08:22:30;;;;;;;4.50;1.83;;;22.60;43.10;;;;;;5035865;28;20037;-70
2021/12/01 08:24:57;;;;;;;1.60;1.30;;;22.70;44.00;;;;;;5035666;28;20056;-70
2021/12/01 08:27:24;;;;;;;2.03;1.65;;;22.60;44.40;;;;;;5036862;28;20041;-73
2021/12/01 08:29:50;;;;;;;3.15;1.52;;;22.70;44.80;;;;;;5039537;28;20134;-72
2021/12/01 08:32:16;;;;;;;3.80;1.88;;;22.70;45.90;;;;;;5039529;28;20065;-70
2021/12/01 08:34:47;;;;;;;3.15;2.03;;;22.80;47.10;;;;;;5039482;28;20045;-74
2021/12/01 08:37:15;;;;;;;3.80;2.10;;;22.70;47.70;;;;;;5039741;28;20045;-74
2021/12/01 08:39:42;;;;;;;4.13;2.25;;;22.80;48.60;;;;;;5045609;28;20049;-74
2021/12/01 08:42:10;;;;;;;7.72;2.50;;;22.80;48.70;;;;;;5059337;28;20061;-76
2021/12/01 08:44:37;;;;;;;5.32;3.00;;;22.70;48.60;;;;;;5059199;28;20048;-73
2021/12/01 08:47:04;;;;;;;3.95;1.98;;;22.70;47.80;;;;;;5059330;28;20079;-74
2021/12/01 08:49:30;;;;;;;4.80;2.42;;;22.80;48.10;;;;;;5059203;28;20067;-75
2021/12/01 08:51:56;;;;;;;6.78;2.72;;;22.80;48.10;;;;;;5058886;28;20049;-74
2021/12/01 08:54:22;;;;;;;4.88;2.83;;;22.80;48.10;;;;;;5058969;28;20051;-74
2021/12/01 08:56:48;;;;;;;6.70;3.25;;;22.80;47.70;;;;;;5059183;28;20101;-75
2021/12/01 08:59:14;;;;;;;5.57;2.97;;;22.90;47.30;;;;;;5058761;28;20041;-75
2021/12/01 09:01:40;;;;;;;4.72;2.95;;;22.80;46.60;;;;;;5058922;28;20045;-72
2021/12/01 09:04:07;;;;;;;4.50;2.88;;;22.90;44.40;;;;;;5058971;28;20041;-70
2021/12/01 09:06:33;;;;;;;7.10;2.90;;;22.90;46.10;;;;;;5058497;28;20071;-70
2021/12/01 09:08:59;;;;;;;11.55;3.42;;;23.00;47.10;;;;;;5057427;28;20038;-71
2021/12/01 09:11:25;;;;;;;6.93;2.53;;;22.90;48.30;;;;;;5056503;28;20048;-70
2021/12/01 09:13:52;;;;;;;3.05;1.85;;;22.90;49.30;;;;;;5056677;28;20041;-75
2021/12/01 09:16:19;;;;;;;3.15;1.63;;;22.90;49.60;;;;;;5057411;28;20039;-75
2021/12/01 09:18:45;;;;;;;5.22;1.38;;;23.10;50.10;;;;;;5057027;28;20101;-66
2021/12/01 09:21:12;;;;;;;1.55;1.17;;;23.00;50.20;;;;;;5056976;28;20100;-70
2021/12/01 09:23:39;;;;;;;1.58;1.40;;;23.00;50.40;;;;;;5057811;28;20118;-69
2021/12/01 09:26:05;;;;;;;4.32;1.58;;;23.00;50.40;;;;;;5057947;28;20042;-71
2021/12/01 09:28:31;;;;;;;3.63;1.63;;;23.10;50.50;;;;;;5057474;28;20053;-76
2021/12/01 09:30:58;;;;;;;1.38;1.08;;;23.10;50.50;;;;;;5058013;28;20057;-71
2021/12/01 09:33:25;;;;;;;3.30;2.13;;;23.10;50.20;;;;;;5058305;28;20101;-71
2021/12/01 09:35:52;;;;;;;1.48;1.33;;;23.00;49.70;;;;;;5057943;28;20053;-69
2021/12/01 09:38:18;;;;;;;0.75;0.73;;;23.00;49.60;;;;;;5062812;28;20112;-75
2021/12/01 09:40:51;;;;;;;1.30;0.90;;;23.10;49.30;;;;;;5077601;28;20065;-75
2021/12/01 09:43:21;;;;;;;3.05;1.73;;;23.10;48.50;;;;;;5039239;28;20048;-70
2021/12/01 09:45:49;;;;;;;1.33;1.20;;;23.00;45.20;;;;;;5038170;28;20048;-71
2021/12/01 09:48:15;;;;;;;1.00;0.88;;;22.90;43.10;;;;;;5038020;28;20045;-70
2021/12/01 09:50:41;;;;;;;5.55;1.73;;;22.90;44.20;;;;;;5037942;28;20074;-71
2021/12/01 09:53:07;;;;;;;0.80;0.80;;;22.90;43.20;;;;;;5038213;28;20052;-70
2021/12/01 09:55:35;;;;;;;3.22;1.35;;;22.90;44.70;;;;;;5037916;28;20049;-70
2021/12/01 09:58:10;;;;;;;1.23;1.20;;;22.90;44.70;;;;;;5037313;28;20045;-71
2021/12/01 10:00:42;;;;;;;8.15;1.25;;;22.90;44.30;;;;;;5038002;28;20049;-69
2021/12/01 10:03:10;;;;;;;0.85;0.52;;;22.90;37.10;;;;;;5037649;28;20056;-69
2021/12/01 10:06:02;;;;;;;2.40;0.73;;;22.90;36.30;;;;;;5037049;28;20113;-69
2021/12/01 10:08:31;;;;;;;5.15;1.23;;;22.80;34.80;;;;;;5036429;28;20084;-70
2021/12/01 10:10:58;;;;;;;2.40;2.03;;;22.80;34.10;;;;;;5036251;28;20057;-70
2021/12/01 10:13:30;;;;;;;3.13;1.60;;;22.70;35.00;;;;;;5037232;28;20041;-70
2021/12/01 10:16:01;;;;;;;1.90;0.98;;;22.70;37.20;;;;;;5037127;28;20053;-70
2021/12/01 10:18:29;;;;;;;1.27;1.02;;;22.70;34.60;;;;;;5037408;28;20041;-69
2021/12/01 10:21:06;;;;;;;2.13;1.10;;;22.80;34.80;;;;;;5037327;28;20037;-70
2021/12/01 10:23:34;;;;;;;4.28;1.17;;;22.80;37.40;;;;;;5037502;28;20038;-69
2021/12/01 10:26:13;;;;;;;1.65;1.15;;;22.90;37.20;;;;;;5037500;28;20041;-70
2021/12/01 10:28:45;;;;;;;4.15;1.40;;;23.00;38.10;;;;;;5037587;28;20037;-70
2021/12/01 10:31:29;;;;;;;1.10;1.00;;;23.00;35.80;;;;;;5036321;28;20065;-71
2021/12/01 10:34:30;;;;;;;7.10;1.30;;;23.00;36.90;;;;;;5052515;28;20038;-71
2021/12/01 10:40:18;;;;;;;1.70;1.20;;;22.90;36.00;;;;;;5053285;28;20052;-73
2021/12/01 10:42:56;;;;;;;;;;;22.90;37.10;;;;;;5077771;28;20048;-72
2021/12/01 10:45:27;;;;;;;3.22;1.48;;;22.90;35.40;;;;;;5077057;28;19908;-72
2021/12/01 10:47:54;;;;;;;1.38;1.27;;;22.80;33.00;;;;;;5077206;28;20056;-72
2021/12/01 10:50:22;;;;;;;2.67;1.25;;;22.80;34.00;;;;;;5076608;28;20081;-72
2021/12/01 10:52:52;;;;;;;1.35;1.20;;;22.70;32.80;;;;;;5059209;28;20041;-72
2021/12/01 10:55:26;;;;;;;2.05;1.33;;;22.70;32.10;;;;;;5076701;28;20041;-72
2021/12/01 10:57:54;;;;;;;1.90;1.10;;;22.70;34.90;;;;;;5076176;28;20052;-71
2021/12/01 11:00:39;;;;;;;2.83;1.30;;;22.70;35.60;;;;;;5076492;28;20049;-71
2021/12/01 11:03:08;;;;;;;2.75;1.33;;;22.80;36.00;;;;;;5076620;28;20037;-70
2021/12/01 11:05:36;;;;;;;2.15;1.27;;;22.70;36.90;;;;;;5076549;28;20126;-71
2021/12/01 11:08:25;;;;;;;1.45;1.35;;;22.80;33.20;;;;;;5076829;28;20120;-71
2021/12/01 11:10:54;;;;;;;2.83;1.00;;;22.70;34.00;;;;;;5059406;28;20064;-71
2021/12/01 11:13:21;;;;;;;2.50;1.52;;;22.70;36.20;;;;;;5074500;28;20032;-71
2021/12/01 11:15:52;;;;;;;3.85;1.20;;;22.70;34.70;;;;;;5076470;28;20076;-71
2021/12/01 11:18:20;;;;;;;3.40;1.95;;;22.90;41.80;;;;;;5058630;28;20068;-68
2021/12/01 11:20:51;;;;;;;1.40;1.25;;;23.00;48.80;;;;;;5076246;28;20045;-69
2021/12/01 11:23:22;;;;;;;3.13;1.42;;;23.00;47.40;;;;;;5076375;28;20028;-68
2021/12/01 11:25:56;;;;;;;3.45;1.65;;;23.10;38.60;;;;;;5056965;28;20101;-69
2021/12/01 11:28:25;;;;;;;6.32;1.70;;;23.10;46.10;;;;;;5056441;28;20045;-70
2021/12/01 11:30:58;;;;;;;3.75;1.88;;;23.20;45.90;;;;;;5055776;28;20045;-69
2021/12/01 11:33:25;;;;;;;2.38;1.33;;;23.10;43.80;;;;;;5056147;28;20049;-70
2021/12/01 11:35:54;;;;;;;1.95;1.42;;;23.00;44.70;;;;;;5056257;28;20042;-70
2021/12/01 11:38:21;;;;;;;3.08;2.08;;;23.10;45.10;;;;;;5055543;28;20045;-69
2021/12/01 11:40:49;;;;;;;2.20;1.30;;;22.90;47.40;;;;;;5071512;28;20063;-69
2021/12/01 11:43:18;;;;;;;3.90;1.65;;;22.80;45.20;;;;;;5058629;28;20048;-69
2021/12/01 11:45:47;;;;;;;2.97;1.52;;;22.80;47.70;;;;;;5076038;28;20040;-69
2021/12/01 11:48:17;;;;;;;3.40;2.30;;;22.70;48.40;;;;;;5055347;28;20068;-69
2021/12/01 11:51:10;;;;;;;4.57;1.58;;;22.80;46.60;;;;;;5055895;28;20065;-69
2021/12/01 11:53:39;;;;;;;4.55;2.17;;;22.60;46.70;;;;;;5021117;28;20068;-71
2021/12/01 11:56:20;;;;;;;7.55;2.15;;;22.60;48.90;;;;;;5038217;28;20056;-70
2021/12/01 11:58:54;;;;;;;5.65;1.30;;;22.60;50.00;;;;;;5055926;28;20033;-69
2021/12/01 12:01:20;;;;;;;2.75;1.27;;;22.60;48.80;;;;;;5055399;28;20053;-70
2021/12/01 12:04:13;;;;;;;2.35;1.40;;;22.70;49.80;;;;;;5054892;28;20052;-69
2021/12/01 12:06:53;;;;;;;3.80;1.20;;;22.80;49.10;;;;;;5044288;28;20044;-71
2021/12/01 12:09:22;;;;;;;1.10;1.00;;;22.90;50.40;;;;;;5052739;28;20290;-70
2021/12/01 12:12:19;;;;;;;1.70;0.98;;;22.70;49.70;;;;;;5054702;28;20045;-69
2021/12/01 12:14:46;;;;;;;1.02;1.00;;;22.70;50.60;;;;;;5053015;28;20093;-70
2021/12/01 12:17:35;;;;;;;1.67;1.30;;;22.80;50.10;;;;;;5055013;28;20029;-68
2021/12/01 12:20:26;;;;;;;1.60;0.93;;;22.80;50.20;;;;;;5061979;28;20049;-68
2021/12/01 12:22:54;;;;;;;1.10;1.00;;;22.80;48.60;;;;;;5053910;28;20033;-69
2021/12/01 12:25:57;;;;;;;5.40;1.48;;;22.80;50.50;;;;;;5054987;28;20041;-69
2021/12/01 12:28:26;;;;;;;1.85;1.38;;;22.80;51.20;;;;;;5053273;28;20033;-70
2021/12/01 12:30:53;;;;;;;3.80;1.50;;;22.80;51.50;;;;;;5054977;28;20045;-70
2021/12/01 12:33:21;;;;;;;1.88;1.58;;;22.80;51.90;;;;;;5049873;28;20045;-70
2021/12/01 12:35:52;;;;;;;1.58;1.20;;;22.60;54.00;;;;;;5054763;28;20221;-70
2021/12/01 12:38:19;;;;;;;3.40;1.75;;;22.80;52.70;;;;;;5052372;28;20151;-71
2021/12/01 12:40:47;;;;;;;1.35;1.20;;;22.70;51.20;;;;;;5055077;28;20072;-70
2021/12/01 12:43:21;;;;;;;2.63;1.50;;;22.70;53.30;;;;;;5055407;28;20072;-70
2021/12/01 12:46:03;;;;;;;3.50;1.67;;;22.70;53.10;;;;;;5054700;28;20049;-71
2021/12/01 12:48:42;;;;;;;7.50;2.30;;;22.70;53.40;;;;;;5055529;28;20071;-70
2021/12/01 12:51:11;;;;;;;4.68;1.73;;;22.50;53.10;;;;;;5055379;28;20053;-70
2021/12/01 12:54:00;;;;;;;3.75;1.30;;;22.50;53.90;;;;;;5055426;28;20049;-69
2021/12/01 12:56:28;;;;;;;1.55;1.45;;;22.60;51.60;;;;;;5054849;28;20048;-70
2021/12/01 12:59:30;;;;;;;2.75;1.73;;;22.70;51.10;;;;;;5054121;28;20044;-69
2021/12/01 13:02:16;;;;;;;6.60;1.30;;;22.70;53.10;;;;;;5055104;28;20045;-70
2021/12/01 13:04:54;;;;;;;5.70;1.80;;;22.70;50.80;;;;;;5054778;28;20041;-71
2021/12/01 13:07:40;;;;;;;3.63;1.95;;;22.70;50.80;;;;;;5050284;28;20076;-70